sensor_id;sensor_type;location;lat;lon;timestamp;P1;durP1;ratioP1;P2;durP2;ratioP2
34234;SDS011;20500;49.856;20.290;2022-10-31T00:01:35;24.40;;;13.00;;
34234;SDS011;20500;49.856;20.290;2022-10-31T00:04:42;20.90;;;12.70;;
34234;SDS011;20500;49.856;20.290;2022-10-31T00:07:48;21.10;;;11.60;;
34234;SDS011;20500;49.856;20.290;2022-10-31T00:10:57;22.30;;;12.90;;
34234;SDS011;20500;49.856;20.290;2022-10-31T00:14:03;20.30;;;11.80;;
34234;SDS011;20500;49.856;20.290;2022-10-31T00:17:10;21.70;;;11.50;;
34234;SDS011;20500;49.856;20.290;2022-10-31T00:20:16;18.10;;;11.50;;
34234;SDS011;20500;49.856;20.290;2022-10-31T00:26:28;17.40;;;9.50;;
34234;SDS011;20500;49.856;20.290;2022-10-31T00:29:34;18.30;;;9.70;;
34234;SDS011;20500;49.856;20.290;2022-10-31T00:35:50;18.80;;;9.80;;
34234;SDS011;20500;49.856;20.290;2022-10-31T00:38:57;18.80;;;9.80;;
34234;SDS011;20500;49.856;20.290;2022-10-31T00:42:04;18.10;;;10.20;;
34234;SDS011;20500;49.856;20.290;2022-10-31T00:48:15;17.10;;;9.50;;
34234;SDS011;20500;49.856;20.290;2022-10-31T00:51:21;17.10;;;9.90;;
34234;SDS011;20500;49.856;20.290;2022-10-31T00:54:28;17.80;;;10.20;;
34234;SDS011;20500;49.856;20.290;2022-10-31T00:57:34;17.40;;;10.00;;
34234;SDS011;20500;49.856;20.290;2022-10-31T01:00:40;17.30;;;9.30;;
34234;SDS011;20500;49.856;20.290;2022-10-31T01:03:51;20.10;;;8.80;;
34234;SDS011;20500;49.856;20.290;2022-10-31T01:06:58;17.60;;;9.30;;
34234;SDS011;20500;49.856;20.290;2022-10-31T01:10:05;18.20;;;8.90;;
34234;SDS011;20500;49.856;20.290;2022-10-31T01:13:11;16.80;;;8.90;;
34234;SDS011;20500;49.856;20.290;2022-10-31T01:16:18;15.50;;;8.30;;
34234;SDS011;20500;49.856;20.290;2022-10-31T01:19:26;17.60;;;8.60;;
34234;SDS011;20500;49.856;20.290;2022-10-31T01:25:37;15.90;;;8.30;;
34234;SDS011;20500;49.856;20.290;2022-10-31T01:28:46;16.90;;;8.80;;
34234;SDS011;20500;49.856;20.290;2022-10-31T01:31:53;15.40;;;8.60;;
34234;SDS011;20500;49.856;20.290;2022-10-31T01:34:59;16.50;;;8.70;;
34234;SDS011;20500;49.856;20.290;2022-10-31T01:38:06;16.10;;;9.30;;
34234;SDS011;20500;49.856;20.290;2022-10-31T01:41:12;14.90;;;8.80;;
34234;SDS011;20500;49.856;20.290;2022-10-31T01:48:00;15.90;;;8.80;;
34234;SDS011;20500;49.856;20.290;2022-10-31T01:51:07;18.40;;;8.60;;
34234;SDS011;20500;49.856;20.290;2022-10-31T01:54:17;14.40;;;8.10;;
34234;SDS011;20500;49.856;20.290;2022-10-31T01:57:28;18.40;;;9.20;;
34234;SDS011;20500;49.856;20.290;2022-10-31T02:00:36;15.70;;;9.40;;
34234;SDS011;20500;49.856;20.290;2022-10-31T02:03:43;19.10;;;10.60;;
34234;SDS011;20500;49.856;20.290;2022-10-31T02:06:51;18.20;;;9.90;;
34234;SDS011;20500;49.856;20.290;2022-10-31T02:10:01;17.80;;;9.40;;
34234;SDS011;20500;49.856;20.290;2022-10-31T02:13:08;17.70;;;9.40;;
34234;SDS011;20500;49.856;20.290;2022-10-31T02:16:16;17.60;;;8.90;;
34234;SDS011;20500;49.856;20.290;2022-10-31T02:19:28;19.00;;;8.80;;
34234;SDS011;20500;49.856;20.290;2022-10-31T02:22:40;17.10;;;7.80;;
34234;SDS011;20500;49.856;20.290;2022-10-31T02:26:02;16.40;;;8.10;;
34234;SDS011;20500;49.856;20.290;2022-10-31T02:29:41;14.20;;;8.00;;
34234;SDS011;20500;49.856;20.290;2022-10-31T02:33:01;15.90;;;8.10;;
34234;SDS011;20500;49.856;20.290;2022-10-31T02:36:20;15.70;;;8.60;;
34234;SDS011;20500;49.856;20.290;2022-10-31T02:39:34;19.80;;;9.40;;
34234;SDS011;20500;49.856;20.290;2022-10-31T02:42:49;19.80;;;10.10;;
34234;SDS011;20500;49.856;20.290;2022-10-31T02:46:04;18.10;;;9.10;;
34234;SDS011;20500;49.856;20.290;2022-10-31T02:49:21;18.80;;;9.40;;
34234;SDS011;20500;49.856;20.290;2022-10-31T02:52:32;18.40;;;8.70;;
34234;SDS011;20500;49.856;20.290;2022-10-31T02:55:49;17.50;;;9.00;;
34234;SDS011;20500;49.856;20.290;2022-10-31T02:59:01;16.40;;;8.80;;
34234;SDS011;20500;49.856;20.290;2022-10-31T03:02:18;17.10;;;8.20;;
34234;SDS011;20500;49.856;20.290;2022-10-31T03:05:42;18.00;;;8.10;;
34234;SDS011;20500;49.856;20.290;2022-10-31T03:09:00;15.00;;;7.50;;
34234;SDS011;20500;49.856;20.290;2022-10-31T03:12:14;13.90;;;8.10;;
34234;SDS011;20500;49.856;20.290;2022-10-31T03:15:30;15.40;;;7.20;;
34234;SDS011;20500;49.856;20.290;2022-10-31T03:18:39;14.90;;;7.40;;
34234;SDS011;20500;49.856;20.290;2022-10-31T03:21:48;14.70;;;7.60;;
34234;SDS011;20500;49.856;20.290;2022-10-31T03:24:59;17.40;;;7.10;;
34234;SDS011;20500;49.856;20.290;2022-10-31T03:28:08;12.50;;;6.40;;
34234;SDS011;20500;49.856;20.290;2022-10-31T03:31:19;13.40;;;6.90;;
34234;SDS011;20500;49.856;20.290;2022-10-31T03:34:29;12.60;;;6.60;;
34234;SDS011;20500;49.856;20.290;2022-10-31T03:37:37;14.50;;;7.10;;
34234;SDS011;20500;49.856;20.290;2022-10-31T03:40:45;14.10;;;6.70;;
34234;SDS011;20500;49.856;20.290;2022-10-31T03:43:56;14.00;;;6.60;;
34234;SDS011;20500;49.856;20.290;2022-10-31T03:47:05;14.00;;;6.10;;
34234;SDS011;20500;49.856;20.290;2022-10-31T03:50:13;12.30;;;5.90;;
34234;SDS011;20500;49.856;20.290;2022-10-31T03:53:22;14.50;;;6.50;;
34234;SDS011;20500;49.856;20.290;2022-10-31T03:56:35;14.60;;;6.50;;
34234;SDS011;20500;49.856;20.290;2022-10-31T03:59:46;14.20;;;6.60;;
34234;SDS011;20500;49.856;20.290;2022-10-31T04:02:57;12.90;;;6.30;;
34234;SDS011;20500;49.856;20.290;2022-10-31T04:06:09;13.90;;;6.90;;
34234;SDS011;20500;49.856;20.290;2022-10-31T04:09:18;12.30;;;5.90;;
34234;SDS011;20500;49.856;20.290;2022-10-31T04:12:26;14.50;;;6.50;;
34234;SDS011;20500;49.856;20.290;2022-10-31T04:15:33;12.10;;;6.00;;
34234;SDS011;20500;49.856;20.290;2022-10-31T04:18:41;12.70;;;6.10;;
34234;SDS011;20500;49.856;20.290;2022-10-31T04:21:48;11.40;;;5.90;;
34234;SDS011;20500;49.856;20.290;2022-10-31T04:24:54;13.90;;;6.20;;
34234;SDS011;20500;49.856;20.290;2022-10-31T04:28:00;14.10;;;6.20;;
34234;SDS011;20500;49.856;20.290;2022-10-31T04:31:08;12.70;;;6.00;;
34234;SDS011;20500;49.856;20.290;2022-10-31T04:34:15;12.50;;;6.30;;
34234;SDS011;20500;49.856;20.290;2022-10-31T04:37:21;12.90;;;6.40;;
34234;SDS011;20500;49.856;20.290;2022-10-31T04:40:27;13.00;;;6.30;;
34234;SDS011;20500;49.856;20.290;2022-10-31T04:43:33;12.50;;;6.20;;
34234;SDS011;20500;49.856;20.290;2022-10-31T04:46:39;12.30;;;6.00;;
34234;SDS011;20500;49.856;20.290;2022-10-31T04:52:50;13.40;;;6.70;;
34234;SDS011;20500;49.856;20.290;2022-10-31T04:55:57;12.30;;;6.30;;
34234;SDS011;20500;49.856;20.290;2022-10-31T04:59:03;13.90;;;6.60;;
34234;SDS011;20500;49.856;20.290;2022-10-31T05:05:15;12.70;;;6.10;;
34234;SDS011;20500;49.856;20.290;2022-10-31T05:08:24;15.50;;;7.30;;
34234;SDS011;20500;49.856;20.290;2022-10-31T05:11:30;13.10;;;6.80;;
34234;SDS011;20500;49.856;20.290;2022-10-31T05:14:36;15.10;;;6.70;;
34234;SDS011;20500;49.856;20.290;2022-10-31T05:17:47;11.90;;;5.80;;
34234;SDS011;20500;49.856;20.290;2022-10-31T05:20:54;13.20;;;6.20;;
34234;SDS011;20500;49.856;20.290;2022-10-31T05:24:00;14.30;;;6.40;;
34234;SDS011;20500;49.856;20.290;2022-10-31T05:27:07;12.80;;;5.80;;
34234;SDS011;20500;49.856;20.290;2022-10-31T05:30:13;13.10;;;5.90;;
34234;SDS011;20500;49.856;20.290;2022-10-31T05:33:21;12.60;;;5.80;;
34234;SDS011;20500;49.856;20.290;2022-10-31T05:36:27;12.60;;;5.80;;
34234;SDS011;20500;49.856;20.290;2022-10-31T05:39:33;12.30;;;5.80;;
34234;SDS011;20500;49.856;20.290;2022-10-31T05:42:40;13.50;;;6.30;;
34234;SDS011;20500;49.856;20.290;2022-10-31T05:45:47;13.90;;;6.70;;
34234;SDS011;20500;49.856;20.290;2022-10-31T05:48:58;12.60;;;5.90;;
34234;SDS011;20500;49.856;20.290;2022-10-31T05:52:05;11.90;;;6.00;;
34234;SDS011;20500;49.856;20.290;2022-10-31T05:58:15;13.40;;;6.30;;
34234;SDS011;20500;49.856;20.290;2022-10-31T06:01:21;14.30;;;6.30;;
34234;SDS011;20500;49.856;20.290;2022-10-31T06:04:28;11.90;;;6.30;;
34234;SDS011;20500;49.856;20.290;2022-10-31T06:07:34;14.90;;;6.60;;
34234;SDS011;20500;49.856;20.290;2022-10-31T06:10:40;13.60;;;6.10;;
34234;SDS011;20500;49.856;20.290;2022-10-31T06:13:46;11.70;;;6.00;;
34234;SDS011;20500;49.856;20.290;2022-10-31T06:16:52;13.30;;;5.80;;
34234;SDS011;20500;49.856;20.290;2022-10-31T06:20:00;11.50;;;5.40;;
34234;SDS011;20500;49.856;20.290;2022-10-31T06:23:06;13.90;;;5.80;;
34234;SDS011;20500;49.856;20.290;2022-10-31T06:26:13;13.70;;;6.50;;
34234;SDS011;20500;49.856;20.290;2022-10-31T06:32:24;15.00;;;5.60;;
34234;SDS011;20500;49.856;20.290;2022-10-31T06:35:30;15.00;;;6.20;;
34234;SDS011;20500;49.856;20.290;2022-10-31T06:38:36;13.10;;;5.70;;
34234;SDS011;20500;49.856;20.290;2022-10-31T06:41:42;13.30;;;6.50;;
34234;SDS011;20500;49.856;20.290;2022-10-31T06:44:50;13.60;;;6.30;;
34234;SDS011;20500;49.856;20.290;2022-10-31T06:47:57;13.20;;;5.70;;
34234;SDS011;20500;49.856;20.290;2022-10-31T06:51:19;12.80;;;6.10;;
34234;SDS011;20500;49.856;20.290;2022-10-31T06:54:25;14.10;;;5.80;;
34234;SDS011;20500;49.856;20.290;2022-10-31T06:57:32;13.40;;;6.10;;
34234;SDS011;20500;49.856;20.290;2022-10-31T07:00:38;13.30;;;5.90;;
34234;SDS011;20500;49.856;20.290;2022-10-31T07:06:49;15.60;;;7.00;;
34234;SDS011;20500;49.856;20.290;2022-10-31T07:09:56;14.00;;;6.80;;
34234;SDS011;20500;49.856;20.290;2022-10-31T07:13:02;14.90;;;7.10;;
34234;SDS011;20500;49.856;20.290;2022-10-31T07:16:09;14.90;;;7.10;;
34234;SDS011;20500;49.856;20.290;2022-10-31T07:19:16;15.00;;;7.20;;
34234;SDS011;20500;49.856;20.290;2022-10-31T07:25:27;15.00;;;7.40;;
34234;SDS011;20500;49.856;20.290;2022-10-31T07:31:38;15.40;;;8.70;;
34234;SDS011;20500;49.856;20.290;2022-10-31T07:34:44;15.20;;;9.00;;
34234;SDS011;20500;49.856;20.290;2022-10-31T07:37:50;15.70;;;9.10;;
34234;SDS011;20500;49.856;20.290;2022-10-31T07:40:57;16.30;;;9.00;;
34234;SDS011;20500;49.856;20.290;2022-10-31T07:47:08;20.10;;;9.20;;
34234;SDS011;20500;49.856;20.290;2022-10-31T07:53:20;15.80;;;9.30;;
34234;SDS011;20500;49.856;20.290;2022-10-31T07:56:26;15.20;;;8.60;;
34234;SDS011;20500;49.856;20.290;2022-10-31T07:59:32;16.00;;;8.60;;
34234;SDS011;20500;49.856;20.290;2022-10-31T08:02:38;17.80;;;8.50;;
34234;SDS011;20500;49.856;20.290;2022-10-31T08:08:50;17.10;;;9.10;;
34234;SDS011;20500;49.856;20.290;2022-10-31T08:11:56;16.80;;;8.80;;
34234;SDS011;20500;49.856;20.290;2022-10-31T08:15:02;17.70;;;9.10;;
34234;SDS011;20500;49.856;20.290;2022-10-31T08:18:11;17.90;;;10.20;;
34234;SDS011;20500;49.856;20.290;2022-10-31T08:21:18;20.00;;;10.40;;
34234;SDS011;20500;49.856;20.290;2022-10-31T08:24:24;22.10;;;9.00;;
34234;SDS011;20500;49.856;20.290;2022-10-31T08:27:30;15.30;;;8.00;;
34234;SDS011;20500;49.856;20.290;2022-10-31T08:30:36;17.00;;;8.70;;
34234;SDS011;20500;49.856;20.290;2022-10-31T08:33:43;17.20;;;8.70;;
34234;SDS011;20500;49.856;20.290;2022-10-31T08:36:49;18.50;;;8.80;;
34234;SDS011;20500;49.856;20.290;2022-10-31T08:39:55;15.50;;;8.60;;
34234;SDS011;20500;49.856;20.290;2022-10-31T08:43:02;16.10;;;8.90;;
34234;SDS011;20500;49.856;20.290;2022-10-31T08:46:10;15.30;;;8.90;;
34234;SDS011;20500;49.856;20.290;2022-10-31T08:49:16;18.60;;;8.90;;
34234;SDS011;20500;49.856;20.290;2022-10-31T08:52:23;18.20;;;8.70;;
34234;SDS011;20500;49.856;20.290;2022-10-31T08:55:50;16.40;;;8.10;;
34234;SDS011;20500;49.856;20.290;2022-10-31T08:58:58;17.60;;;8.20;;
34234;SDS011;20500;49.856;20.290;2022-10-31T09:02:07;18.60;;;8.30;;
34234;SDS011;20500;49.856;20.290;2022-10-31T09:05:13;15.70;;;7.80;;
34234;SDS011;20500;49.856;20.290;2022-10-31T09:08:19;14.70;;;7.60;;
34234;SDS011;20500;49.856;20.290;2022-10-31T09:14:30;16.00;;;7.60;;
34234;SDS011;20500;49.856;20.290;2022-10-31T09:17:36;19.50;;;6.90;;
34234;SDS011;20500;49.856;20.290;2022-10-31T09:23:48;20.40;;;6.90;;
34234;SDS011;20500;49.856;20.290;2022-10-31T09:26:57;15.80;;;7.00;;
34234;SDS011;20500;49.856;20.290;2022-10-31T09:30:04;13.30;;;5.80;;
34234;SDS011;20500;49.856;20.290;2022-10-31T09:33:12;14.80;;;6.70;;
34234;SDS011;20500;49.856;20.290;2022-10-31T09:36:18;15.10;;;6.30;;
34234;SDS011;20500;49.856;20.290;2022-10-31T09:39:25;16.80;;;5.90;;
34234;SDS011;20500;49.856;20.290;2022-10-31T09:42:37;15.10;;;5.60;;
34234;SDS011;20500;49.856;20.290;2022-10-31T09:45:56;15.40;;;6.00;;
34234;SDS011;20500;49.856;20.290;2022-10-31T09:49:23;15.70;;;6.50;;
34234;SDS011;20500;49.856;20.290;2022-10-31T09:52:38;15.40;;;6.10;;
34234;SDS011;20500;49.856;20.290;2022-10-31T09:55:50;13.60;;;5.60;;
34234;SDS011;20500;49.856;20.290;2022-10-31T09:58:58;13.10;;;5.10;;
34234;SDS011;20500;49.856;20.290;2022-10-31T10:02:09;13.40;;;5.30;;
34234;SDS011;20500;49.856;20.290;2022-10-31T10:08:32;14.10;;;4.40;;
34234;SDS011;20500;49.856;20.290;2022-10-31T10:11:44;14.00;;;4.50;;
34234;SDS011;20500;49.856;20.290;2022-10-31T10:15:16;18.00;;;4.60;;
34234;SDS011;20500;49.856;20.290;2022-10-31T10:18:36;11.60;;;4.20;;
34234;SDS011;20500;49.856;20.290;2022-10-31T10:21:50;11.60;;;4.00;;
34234;SDS011;20500;49.856;20.290;2022-10-31T10:25:09;13.40;;;4.00;;
34234;SDS011;20500;49.856;20.290;2022-10-31T10:28:25;14.10;;;5.10;;
34234;SDS011;20500;49.856;20.290;2022-10-31T10:31:41;12.90;;;4.30;;
34234;SDS011;20500;49.856;20.290;2022-10-31T10:34:50;15.10;;;5.00;;
34234;SDS011;20500;49.856;20.290;2022-10-31T10:38:01;13.50;;;4.50;;
34234;SDS011;20500;49.856;20.290;2022-10-31T10:41:16;15.80;;;6.50;;
34234;SDS011;20500;49.856;20.290;2022-10-31T10:44:23;14.00;;;4.90;;
34234;SDS011;20500;49.856;20.290;2022-10-31T10:47:48;16.10;;;4.80;;
34234;SDS011;20500;49.856;20.290;2022-10-31T10:51:01;15.80;;;5.20;;
34234;SDS011;20500;49.856;20.290;2022-10-31T10:58:01;14.70;;;4.70;;
34234;SDS011;20500;49.856;20.290;2022-10-31T11:01:12;13.20;;;4.70;;
34234;SDS011;20500;49.856;20.290;2022-10-31T11:04:24;16.30;;;4.80;;
34234;SDS011;20500;49.856;20.290;2022-10-31T11:07:39;16.40;;;4.60;;
34234;SDS011;20500;49.856;20.290;2022-10-31T11:10:45;15.10;;;4.80;;
34234;SDS011;20500;49.856;20.290;2022-10-31T11:14:01;16.50;;;4.80;;
34234;SDS011;20500;49.856;20.290;2022-10-31T11:17:10;14.10;;;4.60;;
34234;SDS011;20500;49.856;20.290;2022-10-31T11:20:27;17.20;;;5.20;;
34234;SDS011;20500;49.856;20.290;2022-10-31T11:26:42;15.20;;;5.10;;
34234;SDS011;20500;49.856;20.290;2022-10-31T11:29:50;14.60;;;4.70;;
34234;SDS011;20500;49.856;20.290;2022-10-31T11:33:02;12.40;;;4.40;;
34234;SDS011;20500;49.856;20.290;2022-10-31T11:36:15;14.60;;;5.50;;
34234;SDS011;20500;49.856;20.290;2022-10-31T11:42:34;16.80;;;4.80;;
34234;SDS011;20500;49.856;20.290;2022-10-31T11:45:43;13.30;;;4.80;;
34234;SDS011;20500;49.856;20.290;2022-10-31T11:48:49;15.30;;;5.10;;
34234;SDS011;20500;49.856;20.290;2022-10-31T11:51:58;13.10;;;4.40;;
34234;SDS011;20500;49.856;20.290;2022-10-31T11:55:16;15.40;;;5.00;;
34234;SDS011;20500;49.856;20.290;2022-10-31T11:58:35;15.90;;;5.40;;
34234;SDS011;20500;49.856;20.290;2022-10-31T12:01:45;15.20;;;5.10;;
34234;SDS011;20500;49.856;20.290;2022-10-31T12:04:59;14.80;;;4.40;;
34234;SDS011;20500;49.856;20.290;2022-10-31T12:08:11;13.60;;;4.50;;
34234;SDS011;20500;49.856;20.290;2022-10-31T12:11:27;13.80;;;4.80;;
34234;SDS011;20500;49.856;20.290;2022-10-31T12:14:44;15.40;;;5.20;;
34234;SDS011;20500;49.856;20.290;2022-10-31T12:18:01;14.00;;;4.50;;
34234;SDS011;20500;49.856;20.290;2022-10-31T12:21:34;13.70;;;4.60;;
34234;SDS011;20500;49.856;20.290;2022-10-31T12:24:57;15.20;;;4.90;;
34234;SDS011;20500;49.856;20.290;2022-10-31T12:28:28;16.80;;;4.80;;
34234;SDS011;20500;49.856;20.290;2022-10-31T12:31:59;13.40;;;4.90;;
34234;SDS011;20500;49.856;20.290;2022-10-31T12:35:34;13.90;;;4.70;;
34234;SDS011;20500;49.856;20.290;2022-10-31T12:38:58;13.20;;;4.60;;
34234;SDS011;20500;49.856;20.290;2022-10-31T12:42:18;12.20;;;4.30;;
34234;SDS011;20500;49.856;20.290;2022-10-31T12:45:39;16.20;;;5.50;;
34234;SDS011;20500;49.856;20.290;2022-10-31T12:49:07;12.90;;;5.00;;
34234;SDS011;20500;49.856;20.290;2022-10-31T12:52:29;12.70;;;4.70;;
34234;SDS011;20500;49.856;20.290;2022-10-31T12:55:47;14.90;;;5.40;;
34234;SDS011;20500;49.856;20.290;2022-10-31T12:59:04;17.80;;;6.70;;
34234;SDS011;20500;49.856;20.290;2022-10-31T13:02:19;16.70;;;7.80;;
34234;SDS011;20500;49.856;20.290;2022-10-31T13:05:29;15.50;;;5.70;;
34234;SDS011;20500;49.856;20.290;2022-10-31T13:08:39;14.40;;;4.90;;
34234;SDS011;20500;49.856;20.290;2022-10-31T13:11:50;17.20;;;5.50;;
34234;SDS011;20500;49.856;20.290;2022-10-31T13:15:01;13.20;;;5.40;;
34234;SDS011;20500;49.856;20.290;2022-10-31T13:18:31;13.70;;;5.20;;
34234;SDS011;20500;49.856;20.290;2022-10-31T13:21:44;15.50;;;5.10;;
34234;SDS011;20500;49.856;20.290;2022-10-31T13:24:59;15.00;;;5.20;;
34234;SDS011;20500;49.856;20.290;2022-10-31T13:28:15;16.10;;;5.30;;
34234;SDS011;20500;49.856;20.290;2022-10-31T13:31:33;14.80;;;5.00;;
34234;SDS011;20500;49.856;20.290;2022-10-31T13:34:45;16.70;;;5.80;;
34234;SDS011;20500;49.856;20.290;2022-10-31T13:38:00;14.10;;;4.90;;
34234;SDS011;20500;49.856;20.290;2022-10-31T13:41:14;14.20;;;5.10;;
34234;SDS011;20500;49.856;20.290;2022-10-31T13:44:34;14.90;;;5.90;;
34234;SDS011;20500;49.856;20.290;2022-10-31T13:47:41;14.80;;;5.60;;
34234;SDS011;20500;49.856;20.290;2022-10-31T13:50:59;15.80;;;5.60;;
34234;SDS011;20500;49.856;20.290;2022-10-31T13:54:19;15.70;;;5.30;;
34234;SDS011;20500;49.856;20.290;2022-10-31T13:57:29;13.10;;;5.40;;
34234;SDS011;20500;49.856;20.290;2022-10-31T14:00:39;15.80;;;5.00;;
34234;SDS011;20500;49.856;20.290;2022-10-31T14:03:46;16.30;;;5.80;;
34234;SDS011;20500;49.856;20.290;2022-10-31T14:07:16;17.40;;;6.10;;
34234;SDS011;20500;49.856;20.290;2022-10-31T14:10:26;18.00;;;6.10;;
34234;SDS011;20500;49.856;20.290;2022-10-31T14:13:35;15.90;;;5.00;;
34234;SDS011;20500;49.856;20.290;2022-10-31T14:16:46;18.70;;;6.20;;
34234;SDS011;20500;49.856;20.290;2022-10-31T14:19:58;19.50;;;7.80;;
34234;SDS011;20500;49.856;20.290;2022-10-31T14:23:25;18.90;;;9.20;;
34234;SDS011;20500;49.856;20.290;2022-10-31T14:26:39;20.40;;;8.90;;
34234;SDS011;20500;49.856;20.290;2022-10-31T14:29:55;21.60;;;10.40;;
34234;SDS011;20500;49.856;20.290;2022-10-31T14:33:18;25.30;;;13.50;;
34234;SDS011;20500;49.856;20.290;2022-10-31T14:36:28;22.90;;;13.60;;
34234;SDS011;20500;49.856;20.290;2022-10-31T14:39:46;26.80;;;14.70;;
34234;SDS011;20500;49.856;20.290;2022-10-31T14:46:49;41.70;;;29.70;;
34234;SDS011;20500;49.856;20.290;2022-10-31T14:50:07;54.60;;;39.70;;
34234;SDS011;20500;49.856;20.290;2022-10-31T14:53:25;44.40;;;33.30;;
34234;SDS011;20500;49.856;20.290;2022-10-31T14:56:34;48.00;;;35.00;;
34234;SDS011;20500;49.856;20.290;2022-10-31T14:59:45;43.20;;;31.80;;
34234;SDS011;20500;49.856;20.290;2022-10-31T15:03:03;41.50;;;26.80;;
34234;SDS011;20500;49.856;20.290;2022-10-31T15:06:15;79.40;;;51.30;;
34234;SDS011;20500;49.856;20.290;2022-10-31T15:09:24;101.30;;;66.30;;
34234;SDS011;20500;49.856;20.290;2022-10-31T15:12:33;70.80;;;46.10;;
34234;SDS011;20500;49.856;20.290;2022-10-31T15:15:41;42.00;;;26.20;;
34234;SDS011;20500;49.856;20.290;2022-10-31T15:18:54;32.40;;;19.40;;
34234;SDS011;20500;49.856;20.290;2022-10-31T15:22:02;29.50;;;13.70;;
34234;SDS011;20500;49.856;20.290;2022-10-31T15:25:12;20.90;;;9.80;;
34234;SDS011;20500;49.856;20.290;2022-10-31T15:28:24;22.70;;;9.80;;
34234;SDS011;20500;49.856;20.290;2022-10-31T15:31:31;20.30;;;9.90;;
34234;SDS011;20500;49.856;20.290;2022-10-31T15:34:38;23.30;;;11.00;;
34234;SDS011;20500;49.856;20.290;2022-10-31T15:37:45;22.60;;;10.40;;
34234;SDS011;20500;49.856;20.290;2022-10-31T15:40:53;27.30;;;12.00;;
34234;SDS011;20500;49.856;20.290;2022-10-31T15:44:03;30.50;;;15.60;;
34234;SDS011;20500;49.856;20.290;2022-10-31T15:47:17;29.20;;;14.90;;
34234;SDS011;20500;49.856;20.290;2022-10-31T15:50:25;32.90;;;16.50;;
34234;SDS011;20500;49.856;20.290;2022-10-31T15:53:42;36.30;;;18.30;;
34234;SDS011;20500;49.856;20.290;2022-10-31T15:56:51;40.10;;;22.70;;
34234;SDS011;20500;49.856;20.290;2022-10-31T15:59:57;38.70;;;22.40;;
34234;SDS011;20500;49.856;20.290;2022-10-31T16:03:05;40.40;;;23.00;;
34234;SDS011;20500;49.856;20.290;2022-10-31T16:06:22;39.50;;;23.80;;
34234;SDS011;20500;49.856;20.290;2022-10-31T16:09:28;31.30;;;17.40;;
34234;SDS011;20500;49.856;20.290;2022-10-31T16:12:35;28.00;;;16.80;;
34234;SDS011;20500;49.856;20.290;2022-10-31T16:15:49;35.70;;;18.00;;
34234;SDS011;20500;49.856;20.290;2022-10-31T16:19:19;29.10;;;16.80;;
34234;SDS011;20500;49.856;20.290;2022-10-31T16:22:28;29.00;;;14.90;;
34234;SDS011;20500;49.856;20.290;2022-10-31T16:25:36;26.30;;;13.70;;
34234;SDS011;20500;49.856;20.290;2022-10-31T16:28:49;23.20;;;13.10;;
34234;SDS011;20500;49.856;20.290;2022-10-31T16:35:33;22.60;;;9.40;;
34234;SDS011;20500;49.856;20.290;2022-10-31T16:38:40;19.50;;;10.50;;
34234;SDS011;20500;49.856;20.290;2022-10-31T16:44:53;21.50;;;10.20;;
34234;SDS011;20500;49.856;20.290;2022-10-31T16:48:02;22.70;;;11.00;;
34234;SDS011;20500;49.856;20.290;2022-10-31T16:51:10;26.50;;;12.80;;
34234;SDS011;20500;49.856;20.290;2022-10-31T16:54:16;53.40;;;24.50;;
34234;SDS011;20500;49.856;20.290;2022-10-31T16:57:25;29.80;;;14.30;;
34234;SDS011;20500;49.856;20.290;2022-10-31T17:00:33;28.60;;;13.50;;
34234;SDS011;20500;49.856;20.290;2022-10-31T17:03:40;23.80;;;12.40;;
34234;SDS011;20500;49.856;20.290;2022-10-31T17:09:50;27.50;;;16.40;;
34234;SDS011;20500;49.856;20.290;2022-10-31T17:16:02;29.60;;;14.80;;
34234;SDS011;20500;49.856;20.290;2022-10-31T17:19:10;28.00;;;16.90;;
34234;SDS011;20500;49.856;20.290;2022-10-31T17:22:17;42.90;;;32.10;;
34234;SDS011;20500;49.856;20.290;2022-10-31T17:28:28;29.50;;;14.70;;
34234;SDS011;20500;49.856;20.290;2022-10-31T17:31:35;23.70;;;12.50;;
34234;SDS011;20500;49.856;20.290;2022-10-31T17:34:41;32.50;;;15.50;;
34234;SDS011;20500;49.856;20.290;2022-10-31T17:40:52;32.60;;;19.30;;
34234;SDS011;20500;49.856;20.290;2022-10-31T17:43:59;25.80;;;14.70;;
34234;SDS011;20500;49.856;20.290;2022-10-31T17:47:05;25.80;;;13.90;;
34234;SDS011;20500;49.856;20.290;2022-10-31T17:50:11;26.50;;;13.30;;
34234;SDS011;20500;49.856;20.290;2022-10-31T17:53:18;24.20;;;13.20;;
34234;SDS011;20500;49.856;20.290;2022-10-31T17:56:24;27.50;;;14.00;;
34234;SDS011;20500;49.856;20.290;2022-10-31T17:59:31;26.40;;;14.90;;
34234;SDS011;20500;49.856;20.290;2022-10-31T18:05:46;31.50;;;17.50;;
34234;SDS011;20500;49.856;20.290;2022-10-31T18:08:56;56.60;;;39.40;;
34234;SDS011;20500;49.856;20.290;2022-10-31T18:12:05;45.30;;;25.00;;
34234;SDS011;20500;49.856;20.290;2022-10-31T18:15:11;32.80;;;19.10;;
34234;SDS011;20500;49.856;20.290;2022-10-31T18:18:18;30.40;;;19.30;;
34234;SDS011;20500;49.856;20.290;2022-10-31T18:21:24;30.20;;;18.00;;
34234;SDS011;20500;49.856;20.290;2022-10-31T18:24:31;31.80;;;17.80;;
34234;SDS011;20500;49.856;20.290;2022-10-31T18:30:41;33.90;;;20.30;;
34234;SDS011;20500;49.856;20.290;2022-10-31T18:36:55;36.90;;;20.60;;
34234;SDS011;20500;49.856;20.290;2022-10-31T18:43:06;27.00;;;17.00;;
34234;SDS011;20500;49.856;20.290;2022-10-31T18:46:13;33.20;;;21.10;;
34234;SDS011;20500;49.856;20.290;2022-10-31T18:49:20;35.60;;;22.40;;
34234;SDS011;20500;49.856;20.290;2022-10-31T18:52:27;35.90;;;21.20;;
34234;SDS011;20500;49.856;20.290;2022-10-31T18:55:37;31.10;;;20.10;;
34234;SDS011;20500;49.856;20.290;2022-10-31T18:58:51;29.90;;;17.50;;
34234;SDS011;20500;49.856;20.290;2022-10-31T19:01:58;30.40;;;17.00;;
34234;SDS011;20500;49.856;20.290;2022-10-31T19:05:05;27.60;;;18.50;;
34234;SDS011;20500;49.856;20.290;2022-10-31T19:08:12;33.40;;;21.80;;
34234;SDS011;20500;49.856;20.290;2022-10-31T19:11:18;31.00;;;18.50;;
34234;SDS011;20500;49.856;20.290;2022-10-31T19:14:24;28.70;;;17.10;;
34234;SDS011;20500;49.856;20.290;2022-10-31T19:17:31;28.20;;;16.90;;
34234;SDS011;20500;49.856;20.290;2022-10-31T19:23:42;26.80;;;16.30;;
34234;SDS011;20500;49.856;20.290;2022-10-31T19:26:49;29.50;;;16.70;;
34234;SDS011;20500;49.856;20.290;2022-10-31T19:33:00;29.30;;;18.30;;
34234;SDS011;20500;49.856;20.290;2022-10-31T19:42:17;41.80;;;19.80;;
34234;SDS011;20500;49.856;20.290;2022-10-31T19:45:23;30.40;;;18.40;;
34234;SDS011;20500;49.856;20.290;2022-10-31T19:48:29;32.80;;;20.80;;
34234;SDS011;20500;49.856;20.290;2022-10-31T19:51:38;31.30;;;20.10;;
34234;SDS011;20500;49.856;20.290;2022-10-31T19:57:49;30.40;;;17.20;;
34234;SDS011;20500;49.856;20.290;2022-10-31T20:01:06;31.10;;;18.00;;
34234;SDS011;20500;49.856;20.290;2022-10-31T20:04:14;28.70;;;17.20;;
34234;SDS011;20500;49.856;20.290;2022-10-31T20:07:20;30.80;;;19.20;;
34234;SDS011;20500;49.856;20.290;2022-10-31T20:10:26;31.40;;;18.00;;
34234;SDS011;20500;49.856;20.290;2022-10-31T20:16:37;32.00;;;17.10;;
34234;SDS011;20500;49.856;20.290;2022-10-31T20:19:44;27.50;;;17.00;;
34234;SDS011;20500;49.856;20.290;2022-10-31T20:22:50;27.00;;;16.60;;
34234;SDS011;20500;49.856;20.290;2022-10-31T20:29:01;27.60;;;16.50;;
34234;SDS011;20500;49.856;20.290;2022-10-31T20:32:08;29.60;;;18.10;;